Terminal Aerodrome Forecast
Issued by NWS

Home | Current Version | Previous Version | Text Only | Print | Product List | Glossary On
Versions: 1 2 3 4 5 6 7 8 9 10 11 12 13 14 15 16 17 18 19 20 21 22 23 24
000
FTUS41 KOKX 200500
TAFHPN
TAF
KHPN 200538Z 2006/2106 VRB02KT P6SM SCT025 BKN035
     FM200800 VRB03KT P6SM OVC025
     FM201000 VRB03KT P6SM OVC015
     FM201400 16007KT P6SM BKN025
     FM201600 16009KT P6SM BKN035
     FM201900 17010KT P6SM SCT040
     FM210000 15006KT P6SM BKN040
      AMD NOT SKED=

USA.gov is the U.S. government's official web portal to all federal, state and local government web resources and services.